createdAt,value
2022-10-10T00:01:27.801Z,9.27
2022-10-10T00:03:56.519Z,7.87
2022-10-10T00:06:28.100Z,9.83
2022-10-10T00:09:00.223Z,7.13
2022-10-10T00:11:28.495Z,8.00
2022-10-10T00:13:56.774Z,10.57
2022-10-10T00:16:25.146Z,12.10
2022-10-10T00:18:53.354Z,10.07
2022-10-10T00:21:21.538Z,8.73
2022-10-10T00:23:49.681Z,8.80
2022-10-10T00:26:19.682Z,9.67
2022-10-10T00:28:47.958Z,9.40
2022-10-10T00:31:16.426Z,9.47
2022-10-10T00:33:44.647Z,9.60
2022-10-10T00:36:15.178Z,10.57
2022-10-10T00:38:43.293Z,9.17
2022-10-10T00:41:11.610Z,8.10
2022-10-10T00:43:41.267Z,7.53
2022-10-10T00:46:09.669Z,9.23
2022-10-10T00:48:41.718Z,9.80
2022-10-10T00:51:13.014Z,9.83
2022-10-10T00:53:45.632Z,8.40
2022-10-10T00:56:15.309Z,8.23
2022-10-10T00:58:47.959Z,8.20
2022-10-10T01:01:16.376Z,9.63
2022-10-10T01:03:44.642Z,7.80
2022-10-10T01:06:13.180Z,7.07
2022-10-10T01:08:41.938Z,9.43
2022-10-10T01:11:35.176Z,8.97
2022-10-10T01:14:12.197Z,8.93
2022-10-10T01:16:46.950Z,9.77
2022-10-10T01:19:46.166Z,9.47
2022-10-10T01:22:26.981Z,7.33
2022-10-10T01:25:01.030Z,7.77
2022-10-10T01:27:33.367Z,9.70
2022-10-10T01:30:08.402Z,7.67
2022-10-10T01:32:44.096Z,7.70
2022-10-10T01:35:38.199Z,8.53
2022-10-10T01:38:26.601Z,14.07
2022-10-10T01:41:00.793Z,10.77
2022-10-10T01:43:29.013Z,10.50
2022-10-10T01:45:58.965Z,10.73
2022-10-10T01:48:30.797Z,11.63
2022-10-10T01:51:13.515Z,8.73
2022-10-10T01:53:47.571Z,11.20
2022-10-10T01:56:26.991Z,11.87
2022-10-10T01:59:11.637Z,7.90
2022-10-10T02:01:48.227Z,10.33
2022-10-10T02:04:22.667Z,9.10
2022-10-10T02:06:56.109Z,8.60
2022-10-10T02:09:30.043Z,8.00
2022-10-10T02:12:00.769Z,11.40
2022-10-10T02:14:35.251Z,9.83
2022-10-10T02:17:09.016Z,6.93
2022-10-10T02:19:39.005Z,8.50
2022-10-10T02:22:08.421Z,7.17
2022-10-10T02:24:36.799Z,7.20
2022-10-10T02:27:12.346Z,11.73
2022-10-10T02:29:44.369Z,7.60
2022-10-10T02:32:18.443Z,7.50
2022-10-10T02:34:51.700Z,9.90
2022-10-10T02:37:20.923Z,7.63
2022-10-10T02:39:52.467Z,6.87
2022-10-10T02:42:22.959Z,9.30
2022-10-10T02:44:52.308Z,8.17
2022-10-10T02:47:22.291Z,8.07
2022-10-10T02:49:50.467Z,8.23
2022-10-10T02:52:18.885Z,8.40
2022-10-10T02:54:47.114Z,8.93
2022-10-10T02:57:15.384Z,6.73
2022-10-10T02:59:43.676Z,7.97
2022-10-10T03:02:11.912Z,11.53
2022-10-10T03:04:42.177Z,8.53
2022-10-10T03:07:10.397Z,8.53
2022-10-10T03:09:38.573Z,10.37
2022-10-10T03:12:06.830Z,8.23
2022-10-10T03:14:35.089Z,8.33
2022-10-10T03:17:03.385Z,9.23
2022-10-10T03:19:31.578Z,8.13
2022-10-10T03:22:01.154Z,9.20
2022-10-10T03:24:29.558Z,6.03
2022-10-10T03:26:57.942Z,8.73
2022-10-10T03:29:26.090Z,8.47
2022-10-10T03:31:54.328Z,8.67
2022-10-10T03:34:22.670Z,9.83
2022-10-10T03:36:50.936Z,8.47
2022-10-10T03:39:20.582Z,9.13
2022-10-10T03:41:50.326Z,10.43
2022-10-10T03:44:19.122Z,8.90
2022-10-10T03:46:49.912Z,7.87
2022-10-10T03:49:18.120Z,8.57
2022-10-10T03:51:46.362Z,8.23
2022-10-10T03:54:14.587Z,7.23
2022-10-10T03:56:44.227Z,11.00
2022-10-10T03:59:12.570Z,9.00
2022-10-10T04:01:41.052Z,11.00
2022-10-10T04:04:09.270Z,7.97
2022-10-10T04:06:37.505Z,9.43
2022-10-10T04:09:05.670Z,5.87
2022-10-10T04:11:35.204Z,8.67
2022-10-10T04:14:04.866Z,9.33
2022-10-10T04:16:33.086Z,10.53
2022-10-10T04:19:01.624Z,12.77
2022-10-10T04:21:29.782Z,8.63
2022-10-10T04:23:58.358Z,10.93
2022-10-10T04:26:26.670Z,9.30
2022-10-10T04:28:54.907Z,7.07
2022-10-10T04:31:25.028Z,7.90
2022-10-10T04:33:53.488Z,10.70
2022-10-10T04:36:21.616Z,9.50
2022-10-10T04:38:49.854Z,9.77
2022-10-10T04:41:18.152Z,6.67
2022-10-10T04:43:46.430Z,9.10
2022-10-10T04:46:14.648Z,7.77
2022-10-10T04:48:44.301Z,10.63
2022-10-10T04:51:12.733Z,8.40
2022-10-10T04:53:41.026Z,9.47
2022-10-10T04:56:09.260Z,8.70
2022-10-10T04:58:37.442Z,9.10
2022-10-10T05:01:05.965Z,8.57
2022-10-10T05:03:34.203Z,10.40
2022-10-10T05:06:03.916Z,10.63
2022-10-10T05:08:32.023Z,8.67
2022-10-10T05:11:00.366Z,10.33
2022-10-10T05:13:28.701Z,6.17
2022-10-10T05:15:56.790Z,9.97
2022-10-10T05:18:25.014Z,8.33
2022-10-10T05:20:53.223Z,6.97
2022-10-10T05:23:22.918Z,10.90
2022-10-10T05:25:52.151Z,13.53
2022-10-10T05:28:20.526Z,9.47
2022-10-10T05:30:48.796Z,12.70
2022-10-10T05:33:16.950Z,9.77
2022-10-10T05:35:45.226Z,11.27
2022-10-10T05:38:13.396Z,8.37
2022-10-10T05:40:43.536Z,10.53
2022-10-10T05:43:11.831Z,9.10
2022-10-10T05:45:39.972Z,11.37
2022-10-10T05:48:08.102Z,8.07
2022-10-10T05:50:39.561Z,10.37
2022-10-10T05:53:07.890Z,9.60
2022-10-10T05:55:36.716Z,14.37
2022-10-10T05:58:06.361Z,15.77
2022-10-10T06:00:36.494Z,19.43
2022-10-10T06:03:04.847Z,16.93
2022-10-10T06:05:33.026Z,16.30
2022-10-10T06:08:09.327Z,25.70
2022-10-10T06:10:41.949Z,15.03
2022-10-10T06:13:11.971Z,22.97
2022-10-10T06:15:40.385Z,18.57
2022-10-10T06:18:09.087Z,13.07
2022-10-10T06:20:38.220Z,11.23
2022-10-10T06:23:07.297Z,9.57
2022-10-10T06:25:41.600Z,9.20
2022-10-10T06:28:11.994Z,10.87
2022-10-10T06:30:43.874Z,10.03
2022-10-10T06:33:13.491Z,13.03
2022-10-10T06:35:42.771Z,9.33
2022-10-10T06:38:11.760Z,8.50
2022-10-10T06:40:40.128Z,9.93
2022-10-10T06:43:11.763Z,20.07
2022-10-10T06:45:42.406Z,12.13
2022-10-10T06:48:11.736Z,13.17
2022-10-10T06:50:40.478Z,15.27
2022-10-10T06:53:08.881Z,50.07
2022-10-10T06:55:37.233Z,18.17
2022-10-10T06:58:05.431Z,19.60
2022-10-10T07:00:33.639Z,25.70
2022-10-10T07:03:03.217Z,14.07
2022-10-10T07:05:31.386Z,9.13
2022-10-10T07:07:59.589Z,14.83
2022-10-10T07:10:27.818Z,11.80
2022-10-10T07:12:56.475Z,13.07
2022-10-10T07:15:25.033Z,11.50
2022-10-10T07:17:59.349Z,11.80
2022-10-10T07:20:28.972Z,13.13
2022-10-10T07:22:57.512Z,14.80
2022-10-10T07:25:25.851Z,14.07
2022-10-10T07:27:54.334Z,11.13
2022-10-10T07:30:22.640Z,13.10
2022-10-10T07:32:53.292Z,12.13
2022-10-10T07:35:21.824Z,9.10
2022-10-10T07:37:54.964Z,8.60
2022-10-10T07:40:23.410Z,7.70
2022-10-10T07:42:52.097Z,10.77
2022-10-10T07:45:20.643Z,6.67
2022-10-10T07:47:49.163Z,8.10
2022-10-10T07:50:17.716Z,8.17
2022-10-10T07:52:45.945Z,14.37
2022-10-10T07:55:15.725Z,13.53
2022-10-10T07:57:43.979Z,19.63
2022-10-10T08:00:15.350Z,21.30
2022-10-10T08:02:43.658Z,32.17
2022-10-10T08:05:12.763Z,16.63
2022-10-10T08:07:41.214Z,26.03
2022-10-10T08:10:10.739Z,11.50
2022-10-10T08:12:40.482Z,11.43
2022-10-10T08:15:09.745Z,10.10
2022-10-10T08:17:38.148Z,9.67
2022-10-10T08:20:07.554Z,13.03
2022-10-10T08:22:35.816Z,12.57
2022-10-10T08:25:03.991Z,8.37
2022-10-10T08:27:32.199Z,11.33
2022-10-10T08:30:01.957Z,20.40
2022-10-10T08:32:30.168Z,13.77
2022-10-10T08:34:58.798Z,42.70
2022-10-10T08:37:30.423Z,20.07
2022-10-10T08:39:59.955Z,70.50
2022-10-10T08:42:34.095Z,41.90
2022-10-10T08:45:11.051Z,14.90
2022-10-10T08:47:52.329Z,14.43
2022-10-10T08:50:25.195Z,15.20
2022-10-10T08:52:58.657Z,29.07
2022-10-10T08:55:33.500Z,19.43
2022-10-10T08:58:07.620Z,10.93
2022-10-10T09:00:43.583Z,19.77
2022-10-10T09:03:21.378Z,18.50
2022-10-10T09:06:02.205Z,19.23
2022-10-10T09:08:43.654Z,35.00
2022-10-10T09:11:23.306Z,11.10
2022-10-10T09:14:01.759Z,16.30
2022-10-10T09:16:40.044Z,13.40
2022-10-10T09:19:24.394Z,14.03
2022-10-10T09:21:59.722Z,22.67
2022-10-10T09:24:33.529Z,11.27
2022-10-10T09:27:05.020Z,12.27
2022-10-10T09:29:39.936Z,11.00
2022-10-10T09:32:15.211Z,9.67
2022-10-10T09:34:47.780Z,12.50
2022-10-10T09:37:35.326Z,10.90
2022-10-10T09:40:15.906Z,10.80
2022-10-10T09:42:45.301Z,10.00
2022-10-10T09:45:18.288Z,6.83
2022-10-10T09:47:49.654Z,9.60
2022-10-10T09:50:18.393Z,9.43
2022-10-10T09:52:48.129Z,13.55
2022-10-10T09:55:24.782Z,9.23
2022-10-10T09:57:55.207Z,9.88
2022-10-10T10:00:29.077Z,6.25
2022-10-10T10:03:13.607Z,6.80
2022-10-10T10:05:45.031Z,9.77
2022-10-10T10:08:23.237Z,9.13
2022-10-10T10:10:51.756Z,8.13
2022-10-10T10:13:26.010Z,9.70
2022-10-10T10:16:04.068Z,13.13
2022-10-10T10:18:39.871Z,30.52
2022-10-10T10:21:16.358Z,13.90
2022-10-10T10:23:50.439Z,7.57
2022-10-10T10:26:22.627Z,9.95
2022-10-10T10:28:52.821Z,7.97
2022-10-10T10:31:48.305Z,8.10
2022-10-10T10:35:07.525Z,8.85
2022-10-10T10:37:46.931Z,11.25
2022-10-10T10:40:35.575Z,9.05
2022-10-10T10:43:26.238Z,9.93
2022-10-10T10:46:04.245Z,8.70
2022-10-10T10:48:42.043Z,10.85
2022-10-10T10:51:29.115Z,9.65
2022-10-10T10:54:08.680Z,7.97
2022-10-10T10:56:42.578Z,9.20
2022-10-10T11:00:16.689Z,6.28
2022-10-10T11:02:54.936Z,10.23
2022-10-10T11:05:41.283Z,10.05
2022-10-10T11:08:36.966Z,10.05
2022-10-10T11:11:32.357Z,7.50
2022-10-10T11:14:08.326Z,11.85
2022-10-10T11:16:48.502Z,8.32
2022-10-10T11:19:26.544Z,8.25
2022-10-10T11:21:59.486Z,9.48
2022-10-10T11:24:37.485Z,7.93
2022-10-10T11:27:12.583Z,14.20
2022-10-10T11:29:52.167Z,8.27
2022-10-10T11:32:27.163Z,14.15
2022-10-10T11:35:07.084Z,9.88
2022-10-10T11:37:41.171Z,14.60
2022-10-10T11:40:27.398Z,8.60
2022-10-10T11:43:02.219Z,11.18
2022-10-10T11:45:35.572Z,14.20
2022-10-10T11:48:14.426Z,10.63
2022-10-10T11:50:44.503Z,11.05
2022-10-10T11:53:21.691Z,11.13
2022-10-10T11:55:56.086Z,10.52
2022-10-10T11:58:34.892Z,14.00
2022-10-10T12:01:08.083Z,10.77
2022-10-10T12:03:36.363Z,15.00
2022-10-10T12:06:13.549Z,15.95
2022-10-10T12:08:46.639Z,13.75
2022-10-10T12:11:19.991Z,12.45
2022-10-10T12:13:55.133Z,10.85
2022-10-10T12:16:30.537Z,12.55
2022-10-10T12:19:03.548Z,9.80
2022-10-10T12:21:32.962Z,7.75
2022-10-10T12:24:05.759Z,9.80
2022-10-10T12:27:11.389Z,7.82
2022-10-10T12:29:50.922Z,8.63
2022-10-10T12:32:28.171Z,7.82
2022-10-10T12:35:01.753Z,8.75
2022-10-10T12:37:31.236Z,6.28
2022-10-10T12:40:21.509Z,7.80
2022-10-10T12:43:05.453Z,10.10
2022-10-10T12:46:09.313Z,8.77
2022-10-10T12:48:38.000Z,9.02
2022-10-10T12:51:06.943Z,8.43
2022-10-10T12:53:36.185Z,8.80
2022-10-10T12:56:05.024Z,12.00
2022-10-10T12:58:36.148Z,10.93
2022-10-10T13:01:09.578Z,7.63
2022-10-10T13:03:41.224Z,9.90
2022-10-10T13:06:19.112Z,9.73
2022-10-10T13:08:50.034Z,8.02
2022-10-10T13:11:18.264Z,6.35
2022-10-10T13:13:51.981Z,6.28
2022-10-10T13:16:23.138Z,6.05
2022-10-10T13:18:53.564Z,5.15
2022-10-10T13:21:24.914Z,4.18
2022-10-10T13:26:48.002Z,3.50
2022-10-10T13:29:29.095Z,7.00
2022-10-10T13:32:03.060Z,5.35
2022-10-10T13:34:35.239Z,6.45
2022-10-10T13:37:07.856Z,4.95
2022-10-10T13:39:38.724Z,7.82
2022-10-10T13:42:08.645Z,7.18
2022-10-10T13:44:50.355Z,3.67
2022-10-10T13:47:43.303Z,4.60
2022-10-10T13:50:20.449Z,4.93
2022-10-10T13:52:48.745Z,2.20
2022-10-10T13:55:23.468Z,4.23
2022-10-10T13:57:52.298Z,2.38
2022-10-10T14:00:22.773Z,3.78
2022-10-10T14:02:52.494Z,2.10
2022-10-10T14:05:27.712Z,6.32
2022-10-10T14:07:56.515Z,1.30
2022-10-10T14:10:26.468Z,2.38
2022-10-10T14:12:57.478Z,6.20
2022-10-10T14:15:37.728Z,2.73
2022-10-10T14:18:17.321Z,4.60
2022-10-10T14:20:46.087Z,3.20
2022-10-10T14:23:14.752Z,1.50
2022-10-10T14:25:45.060Z,4.23
2022-10-10T14:28:17.797Z,3.00
2022-10-10T14:30:45.990Z,4.77
2022-10-10T14:33:17.443Z,3.20
2022-10-10T14:35:47.038Z,5.50
2022-10-10T14:38:16.159Z,5.30
2022-10-10T14:40:46.284Z,2.70
2022-10-10T14:43:15.298Z,2.90
2022-10-10T14:45:43.597Z,7.57
2022-10-10T14:48:12.997Z,1.83
2022-10-10T14:50:45.000Z,4.43
2022-10-10T14:53:13.473Z,4.93
2022-10-10T14:55:43.437Z,2.67
2022-10-10T14:58:16.139Z,3.20
2022-10-10T15:00:44.851Z,3.13
2022-10-10T15:03:13.225Z,7.10
2022-10-10T15:05:43.087Z,4.67
2022-10-10T15:08:14.662Z,3.67
2022-10-10T15:10:42.874Z,6.23
2022-10-10T15:13:11.954Z,3.83
2022-10-10T15:15:40.487Z,4.43
2022-10-10T15:18:25.667Z,5.43
2022-10-10T15:21:00.095Z,5.30
2022-10-10T15:23:28.428Z,5.47
2022-10-10T15:26:00.525Z,5.17
2022-10-10T15:28:28.753Z,5.57
2022-10-10T15:30:57.379Z,4.77
2022-10-10T15:33:26.100Z,7.10
2022-10-10T15:36:09.650Z,4.50
2022-10-10T15:38:38.708Z,3.87
2022-10-10T15:41:08.970Z,4.50
2022-10-10T15:43:47.040Z,4.47
2022-10-10T15:46:15.208Z,10.70
2022-10-10T15:48:43.452Z,7.30
2022-10-10T15:51:13.219Z,5.10
2022-10-10T15:53:41.556Z,4.53
2022-10-10T15:56:10.832Z,3.10
2022-10-10T15:58:40.985Z,4.10
2022-10-10T16:01:14.587Z,6.20
2022-10-10T16:03:43.237Z,3.00
2022-10-10T16:06:13.268Z,5.03
2022-10-10T16:08:41.463Z,7.47
2022-10-10T16:11:11.719Z,5.70
2022-10-10T16:13:40.978Z,10.30
2022-10-10T16:16:12.325Z,5.20
2022-10-10T16:18:42.345Z,5.93
2022-10-10T16:21:14.408Z,7.67
2022-10-10T16:23:42.774Z,6.87
2022-10-10T16:26:15.289Z,5.93
2022-10-10T16:28:43.818Z,6.73
2022-10-10T16:31:14.379Z,11.67
2022-10-10T16:33:43.395Z,8.87
2022-10-10T16:36:15.112Z,6.97
2022-10-10T16:38:43.537Z,6.33
2022-10-10T16:41:35.234Z,10.70
2022-10-10T16:44:02.576Z,14.30
2022-10-10T16:46:30.931Z,9.57
2022-10-10T16:49:00.544Z,9.40
2022-10-10T16:51:30.883Z,9.13
2022-10-10T16:54:02.776Z,8.63
2022-10-10T16:56:31.183Z,12.57
2022-10-10T16:59:00.611Z,6.43
2022-10-10T17:01:29.162Z,7.70
2022-10-10T17:03:59.979Z,7.73
2022-10-10T17:06:35.345Z,4.90
2022-10-10T17:09:05.719Z,7.80
2022-10-10T17:11:34.532Z,6.93
2022-10-10T17:14:02.942Z,10.83
2022-10-10T17:17:07.115Z,8.87
2022-10-10T17:19:19.754Z,7.00
2022-10-10T17:21:49.251Z,10.27
2022-10-10T17:24:17.760Z,6.07
2022-10-10T17:26:45.923Z,11.17
2022-10-10T17:29:14.349Z,6.53
2022-10-10T17:31:42.737Z,8.50
2022-10-10T17:34:10.935Z,9.03
2022-10-10T17:36:39.133Z,5.80
2022-10-10T17:39:08.771Z,7.57
2022-10-10T17:41:36.956Z,6.87
2022-10-10T17:44:05.831Z,9.37
2022-10-10T17:46:36.252Z,9.83
2022-10-10T17:49:06.362Z,6.30
2022-10-10T17:51:35.771Z,12.53
2022-10-10T17:54:06.427Z,9.87
2022-10-10T17:56:36.180Z,8.03
2022-10-10T17:59:06.672Z,7.17
2022-10-10T18:01:36.114Z,4.10
2022-10-10T18:04:05.112Z,9.83
2022-10-10T18:06:33.968Z,7.67
2022-10-10T18:09:02.337Z,6.90
2022-10-10T18:11:32.038Z,8.87
2022-10-10T18:14:01.789Z,6.43
2022-10-10T18:16:33.766Z,7.93
2022-10-10T18:19:03.397Z,11.23
2022-10-10T18:21:31.619Z,5.90
2022-10-10T18:24:00.706Z,6.33
2022-10-10T18:26:31.187Z,5.03
2022-10-10T18:29:01.420Z,8.80
2022-10-10T18:31:33.073Z,9.07
2022-10-10T18:34:01.908Z,8.30
2022-10-10T18:36:32.566Z,9.23
2022-10-10T18:39:02.314Z,8.37
2022-10-10T18:41:34.222Z,9.10
2022-10-10T18:44:05.644Z,12.57
2022-10-10T18:46:34.334Z,12.03
2022-10-10T18:49:02.947Z,6.07
2022-10-10T18:51:32.022Z,10.20
2022-10-10T18:54:03.505Z,11.50
2022-10-10T18:56:33.309Z,7.30
2022-10-10T18:59:05.960Z,9.70
2022-10-10T19:01:36.964Z,9.33
2022-10-10T19:04:07.204Z,12.43
2022-10-10T19:06:36.712Z,11.17
2022-10-10T19:09:07.424Z,13.00
2022-10-10T19:11:39.285Z,14.90
2022-10-10T19:14:11.113Z,17.07
2022-10-10T19:16:39.677Z,13.73
2022-10-10T19:19:07.962Z,21.47
2022-10-10T19:21:38.333Z,20.83
2022-10-10T19:24:08.907Z,20.37
2022-10-10T19:26:37.807Z,21.67
2022-10-10T19:29:09.499Z,18.50
2022-10-10T19:31:38.231Z,19.43
2022-10-10T19:34:06.757Z,24.67
2022-10-10T19:36:38.505Z,23.00
2022-10-10T19:39:08.781Z,21.67
2022-10-10T19:41:37.327Z,22.20
2022-10-10T19:44:06.031Z,22.77
2022-10-10T19:46:37.414Z,20.57
2022-10-10T19:49:06.355Z,18.77
2022-10-10T19:51:34.643Z,18.87
2022-10-10T19:54:02.812Z,21.53
2022-10-10T19:56:31.044Z,15.43
2022-10-10T19:59:01.118Z,20.43
2022-10-10T20:01:30.963Z,17.17
2022-10-10T20:04:00.727Z,22.97
2022-10-10T20:06:29.139Z,20.67
2022-10-10T20:08:57.643Z,21.60
2022-10-10T20:11:26.464Z,17.90
2022-10-10T20:13:55.743Z,16.93
2022-10-10T20:16:26.618Z,13.87
2022-10-10T20:18:56.345Z,14.07
2022-10-10T20:21:29.313Z,11.50
2022-10-10T20:23:58.365Z,16.80
2022-10-10T20:26:26.850Z,14.17
2022-10-10T20:28:56.069Z,12.03
2022-10-10T20:31:26.716Z,16.53
2022-10-10T20:33:57.071Z,15.77
2022-10-10T20:36:27.729Z,14.17
2022-10-10T20:38:57.766Z,14.13
2022-10-10T20:41:28.017Z,11.60
2022-10-10T20:43:58.207Z,10.80
2022-10-10T20:46:27.690Z,11.97
2022-10-10T20:48:56.188Z,11.60
2022-10-10T20:51:26.970Z,13.53
2022-10-10T20:53:57.483Z,11.90
2022-10-10T20:56:26.746Z,15.90
2022-10-10T20:58:55.320Z,15.93
2022-10-10T21:01:25.728Z,16.80
2022-10-10T21:03:54.160Z,13.20
2022-10-10T21:06:25.578Z,11.27
2022-10-10T21:08:56.170Z,11.63
2022-10-10T21:11:25.007Z,10.40
2022-10-10T21:13:56.517Z,16.07
2022-10-10T21:16:26.255Z,16.33
2022-10-10T21:18:57.873Z,16.80
2022-10-10T21:21:27.094Z,12.77
2022-10-10T21:23:59.201Z,16.03
2022-10-10T21:26:28.930Z,15.23
2022-10-10T21:28:58.790Z,13.03
2022-10-10T21:31:30.333Z,13.87
2022-10-10T21:34:00.313Z,16.37
2022-10-10T21:36:28.621Z,19.17
2022-10-10T21:38:59.225Z,14.27
2022-10-10T21:41:27.724Z,13.27
2022-10-10T21:43:58.058Z,12.80
2022-10-10T21:46:34.769Z,12.57
2022-10-10T21:49:06.742Z,13.63
2022-10-10T21:51:37.255Z,11.40
2022-10-10T21:54:07.938Z,12.30
2022-10-10T21:56:36.940Z,15.50
2022-10-10T21:59:05.365Z,13.67
2022-10-10T22:01:33.673Z,16.83
2022-10-10T22:04:03.079Z,18.60
2022-10-10T22:06:32.019Z,16.40
2022-10-10T22:09:02.148Z,13.93
2022-10-10T22:11:34.322Z,12.80
2022-10-10T22:14:03.481Z,15.03
2022-10-10T22:16:32.506Z,13.90
2022-10-10T22:19:01.194Z,9.37
2022-10-10T22:21:31.945Z,9.27
2022-10-10T22:24:02.555Z,11.07
2022-10-10T22:26:33.744Z,13.03
2022-10-10T22:29:02.047Z,16.77
2022-10-10T22:31:30.459Z,13.40
2022-10-10T22:33:58.871Z,12.33
2022-10-10T22:36:27.335Z,12.07
2022-10-10T22:38:55.566Z,12.07
2022-10-10T22:41:23.971Z,13.23
2022-10-10T22:43:54.213Z,11.37
2022-10-10T22:46:22.369Z,13.90
2022-10-10T22:48:50.759Z,11.60
2022-10-10T22:51:19.278Z,11.93
2022-10-10T22:53:49.295Z,11.87
2022-10-10T22:56:20.868Z,9.03
2022-10-10T22:58:49.940Z,9.63
2022-10-10T23:01:21.665Z,9.60
2022-10-10T23:03:49.994Z,13.47
2022-10-10T23:06:18.647Z,9.60
2022-10-10T23:08:46.795Z,17.57
2022-10-10T23:11:14.964Z,9.40
2022-10-10T23:13:43.195Z,10.57
2022-10-10T23:16:12.747Z,8.03
2022-10-10T23:18:44.770Z,7.93
2022-10-10T23:21:13.006Z,9.33
2022-10-10T23:23:41.389Z,6.10
2022-10-10T23:26:10.303Z,12.33
2022-10-10T23:28:39.424Z,6.93
2022-10-10T23:31:09.792Z,9.77
2022-10-10T23:33:38.537Z,10.30
2022-10-10T23:36:11.576Z,9.27
2022-10-10T23:38:40.789Z,7.00
2022-10-10T23:41:11.659Z,9.80
2022-10-10T23:43:39.903Z,11.57
2022-10-10T23:46:08.962Z,8.70
2022-10-10T23:48:37.415Z,10.17
2022-10-10T23:51:06.391Z,6.77
2022-10-10T23:53:36.508Z,6.53
2022-10-10T23:56:05.307Z,6.13
2022-10-10T23:58:52.963Z,7.07
